Barrontown, Mississippi
Current Conditions -  °F | °C
As of 5:53 PM on Sunday 23 Nov 2014 (Local Time) from KHBG Reporting Station
Clear Clear  
Wind Chill: 68°   Ceiling: Unl
Heat Index: 68°   Visibility: 10mi
Dew Point: 59°   Wind: 9mph
Humidity: 73%   Direction: 200°SSW
Pressure: 29.64"   Gusts: NA
Location:  31.1996°N, 89.2694°W
Report Text: KHBG 232353Z AUTO 20008KT 10SM CLR 20/15 A2964 RMK AO2 SLP035 T02000150 10222 20194 52016
Loading
Personal Weather Stations






























Interactive Weather Map New forecast layout! Learn more

10-Day Weather Forecast

Advertisements
Track Severe Weather on mobile